sensor_id;sensor_type;location;lat;lon;timestamp;pressure;altitude;pressure_sealevel;temperature;humidity
8575;BME280;4325;42.520;27.448;2023-04-20T00:01:53;100579.88;;;11.67;100.00
8575;BME280;4325;42.520;27.448;2023-04-20T00:04:21;100572.75;;;11.66;100.00
8575;BME280;4325;42.520;27.448;2023-04-20T00:06:48;100564.03;;;11.59;100.00
8575;BME280;4325;42.520;27.448;2023-04-20T00:09:16;100574.97;;;11.64;100.00
8575;BME280;4325;42.520;27.448;2023-04-20T00:11:43;100571.41;;;11.64;100.00
8575;BME280;4325;42.520;27.448;2023-04-20T00:14:10;100564.00;;;11.64;100.00
8575;BME280;4325;42.520;27.448;2023-04-20T00:16:37;100566.75;;;11.69;100.00
8575;BME280;4325;42.520;27.448;2023-04-20T00:19:05;100559.56;;;11.78;100.00
8575;BME280;4325;42.520;27.448;2023-04-20T00:21:33;100571.63;;;11.82;100.00
8575;BME280;4325;42.520;27.448;2023-04-20T00:24:00;100563.03;;;11.94;100.00
8575;BME280;4325;42.520;27.448;2023-04-20T00:26:27;100559.16;;;11.95;100.00
8575;BME280;4325;42.520;27.448;2023-04-20T00:28:54;100563.00;;;11.99;100.00
8575;BME280;4325;42.520;27.448;2023-04-20T00:31:21;100556.69;;;11.99;100.00
8575;BME280;4325;42.520;27.448;2023-04-20T00:33:47;100558.28;;;12.05;100.00
8575;BME280;4325;42.520;27.448;2023-04-20T00:36:16;100566.47;;;12.10;100.00
8575;BME280;4325;42.520;27.448;2023-04-20T00:38:43;100558.19;;;12.15;100.00
8575;BME280;4325;42.520;27.448;2023-04-20T00:41:09;100552.13;;;12.18;100.00
8575;BME280;4325;42.520;27.448;2023-04-20T00:43:36;100550.25;;;12.13;100.00
8575;BME280;4325;42.520;27.448;2023-04-20T00:46:03;100559.69;;;12.02;100.00
8575;BME280;4325;42.520;27.448;2023-04-20T00:48:30;100553.41;;;11.97;100.00
8575;BME280;4325;42.520;27.448;2023-04-20T00:50:57;100553.44;;;11.91;100.00
8575;BME280;4325;42.520;27.448;2023-04-20T00:53:25;100556.72;;;11.93;100.00
8575;BME280;4325;42.520;27.448;2023-04-20T00:55:52;100552.88;;;11.95;100.00
8575;BME280;4325;42.520;27.448;2023-04-20T00:58:19;100549.03;;;11.90;100.00
8575;BME280;4325;42.520;27.448;2023-04-20T01:00:46;100548.50;;;11.88;100.00
8575;BME280;4325;42.520;27.448;2023-04-20T01:03:13;100546.94;;;11.82;100.00
8575;BME280;4325;42.520;27.448;2023-04-20T01:05:40;100549.38;;;11.84;100.00
8575;BME280;4325;42.520;27.448;2023-04-20T01:08:07;100555.66;;;11.89;100.00
8575;BME280;4325;42.520;27.448;2023-04-20T01:10:35;100553.97;;;11.93;100.00
8575;BME280;4325;42.520;27.448;2023-04-20T01:13:02;100557.22;;;12.01;100.00
8575;BME280;4325;42.520;27.448;2023-04-20T01:15:29;100554.44;;;12.06;100.00
8575;BME280;4325;42.520;27.448;2023-04-20T01:17:56;100554.41;;;12.11;100.00
8575;BME280;4325;42.520;27.448;2023-04-20T01:20:23;100555.41;;;12.20;100.00
8575;BME280;4325;42.520;27.448;2023-04-20T01:22:52;100562.00;;;12.24;100.00
8575;BME280;4325;42.520;27.448;2023-04-20T01:25:20;100560.03;;;12.24;100.00
8575;BME280;4325;42.520;27.448;2023-04-20T01:27:47;100562.22;;;12.27;100.00
8575;BME280;4325;42.520;27.448;2023-04-20T01:30:14;100563.03;;;12.28;100.00
8575;BME280;4325;42.520;27.448;2023-04-20T01:32:41;100560.31;;;12.28;100.00
8575;BME280;4325;42.520;27.448;2023-04-20T01:35:08;100557.56;;;12.28;100.00
8575;BME280;4325;42.520;27.448;2023-04-20T01:37:36;100559.22;;;12.29;100.00
8575;BME280;4325;42.520;27.448;2023-04-20T01:40:07;100562.03;;;12.19;100.00
8575;BME280;4325;42.520;27.448;2023-04-20T01:42:34;100554.34;;;12.16;100.00
8575;BME280;4325;42.520;27.448;2023-04-20T01:45:01;100547.25;;;12.10;100.00
8575;BME280;4325;42.520;27.448;2023-04-20T01:47:29;100549.84;;;11.96;100.00
8575;BME280;4325;42.520;27.448;2023-04-20T01:49:56;100546.91;;;11.87;100.00
8575;BME280;4325;42.520;27.448;2023-04-20T01:52:23;100537.59;;;11.78;100.00
8575;BME280;4325;42.520;27.448;2023-04-20T01:54:50;100540.91;;;11.75;100.00
8575;BME280;4325;42.520;27.448;2023-04-20T01:57:18;100534.91;;;11.73;100.00
8575;BME280;4325;42.520;27.448;2023-04-20T01:59:45;100527.25;;;11.70;100.00
8575;BME280;4325;42.520;27.448;2023-04-20T02:02:11;100523.38;;;11.66;100.00
8575;BME280;4325;42.520;27.448;2023-04-20T02:04:38;100526.16;;;11.61;100.00
8575;BME280;4325;42.520;27.448;2023-04-20T02:07:05;100530.88;;;11.56;100.00
8575;BME280;4325;42.520;27.448;2023-04-20T02:09:32;100527.88;;;11.52;100.00
8575;BME280;4325;42.520;27.448;2023-04-20T02:11:58;100519.66;;;11.47;100.00
8575;BME280;4325;42.520;27.448;2023-04-20T02:14:27;100522.44;;;11.42;100.00
8575;BME280;4325;42.520;27.448;2023-04-20T02:16:54;100517.28;;;11.36;100.00
8575;BME280;4325;42.520;27.448;2023-04-20T02:19:21;100532.06;;;11.35;100.00
8575;BME280;4325;42.520;27.448;2023-04-20T02:21:48;100527.97;;;11.32;100.00
8575;BME280;4325;42.520;27.448;2023-04-20T02:24:15;100526.06;;;11.27;100.00
8575;BME280;4325;42.520;27.448;2023-04-20T02:26:42;100523.63;;;11.26;100.00
8575;BME280;4325;42.520;27.448;2023-04-20T02:29:08;100529.38;;;11.24;100.00
8575;BME280;4325;42.520;27.448;2023-04-20T02:31:37;100532.13;;;11.24;100.00
8575;BME280;4325;42.520;27.448;2023-04-20T02:34:03;100526.94;;;11.18;100.00
8575;BME280;4325;42.520;27.448;2023-04-20T02:36:33;100543.69;;;11.11;100.00
8575;BME280;4325;42.520;27.448;2023-04-20T02:39:00;100535.22;;;11.03;100.00
8575;BME280;4325;42.520;27.448;2023-04-20T02:41:27;100527.00;;;10.98;100.00
8575;BME280;4325;42.520;27.448;2023-04-20T02:43:54;100524.03;;;10.94;100.00
8575;BME280;4325;42.520;27.448;2023-04-20T02:46:21;100525.38;;;10.97;100.00
8575;BME280;4325;42.520;27.448;2023-04-20T02:48:49;100528.69;;;10.94;100.00
8575;BME280;4325;42.520;27.448;2023-04-20T02:51:16;100526.78;;;10.94;100.00
8575;BME280;4325;42.520;27.448;2023-04-20T02:53:43;100527.59;;;10.95;100.00
8575;BME280;4325;42.520;27.448;2023-04-20T02:56:10;100526.47;;;10.96;100.00
8575;BME280;4325;42.520;27.448;2023-04-20T02:58:37;100517.72;;;10.94;100.00
8575;BME280;4325;42.520;27.448;2023-04-20T03:01:04;100527.00;;;10.98;100.00
8575;BME280;4325;42.520;27.448;2023-04-20T03:03:31;100523.75;;;10.91;100.00
8575;BME280;4325;42.520;27.448;2023-04-20T03:05:59;100522.94;;;10.90;100.00
8575;BME280;4325;42.520;27.448;2023-04-20T03:08:26;100525.38;;;10.97;100.00
8575;BME280;4325;42.520;27.448;2023-04-20T03:10:53;100523.47;;;10.97;100.00
8575;BME280;4325;42.520;27.448;2023-04-20T03:13:20;100519.34;;;11.00;100.00
8575;BME280;4325;42.520;27.448;2023-04-20T03:15:47;100525.38;;;11.02;100.00
8575;BME280;4325;42.520;27.448;2023-04-20T03:18:13;100528.66;;;11.04;100.00
8575;BME280;4325;42.520;27.448;2023-04-20T03:20:40;100531.38;;;11.04;100.00
8575;BME280;4325;42.520;27.448;2023-04-20T03:23:08;100526.47;;;11.01;100.00
8575;BME280;4325;42.520;27.448;2023-04-20T03:25:35;100525.63;;;11.00;100.00
8575;BME280;4325;42.520;27.448;2023-04-20T03:28:02;100522.09;;;11.00;100.00
8575;BME280;4325;42.520;27.448;2023-04-20T03:30:29;100532.50;;;10.98;100.00
8575;BME280;4325;42.520;27.448;2023-04-20T03:32:56;100529.50;;;10.99;100.00
8575;BME280;4325;42.520;27.448;2023-04-20T03:35:22;100524.84;;;11.00;100.00
8575;BME280;4325;42.520;27.448;2023-04-20T03:37:49;100530.28;;;11.05;100.00
8575;BME280;4325;42.520;27.448;2023-04-20T03:40:17;100529.72;;;11.08;100.00
8575;BME280;4325;42.520;27.448;2023-04-20T03:42:44;100519.56;;;11.13;100.00
8575;BME280;4325;42.520;27.448;2023-04-20T03:45:11;100522.53;;;11.22;100.00
8575;BME280;4325;42.520;27.448;2023-04-20T03:47:38;100528.00;;;11.27;100.00
8575;BME280;4325;42.520;27.448;2023-04-20T03:50:06;100530.19;;;11.30;100.00
8575;BME280;4325;42.520;27.448;2023-04-20T03:52:33;100520.28;;;11.34;100.00
8575;BME280;4325;42.520;27.448;2023-04-20T03:55:00;100531.78;;;11.41;100.00
8575;BME280;4325;42.520;27.448;2023-04-20T03:57:28;100533.41;;;11.42;100.00
8575;BME280;4325;42.520;27.448;2023-04-20T03:59:55;100532.56;;;11.47;100.00
8575;BME280;4325;42.520;27.448;2023-04-20T04:02:22;100537.75;;;11.53;100.00
8575;BME280;4325;42.520;27.448;2023-04-20T04:04:49;100541.00;;;11.60;100.00
8575;BME280;4325;42.520;27.448;2023-04-20T04:07:16;100542.59;;;11.66;100.00
8575;BME280;4325;42.520;27.448;2023-04-20T04:09:42;100542.03;;;11.74;100.00
8575;BME280;4325;42.520;27.448;2023-04-20T04:12:09;100548.03;;;11.81;100.00
8575;BME280;4325;42.520;27.448;2023-04-20T04:14:38;100548.50;;;11.88;100.00
8575;BME280;4325;42.520;27.448;2023-04-20T04:17:04;100543.78;;;11.99;100.00
8575;BME280;4325;42.520;27.448;2023-04-20T04:19:32;100552.75;;;12.10;100.00
8575;BME280;4325;42.520;27.448;2023-04-20T04:21:59;100547.22;;;12.15;100.00
8575;BME280;4325;42.520;27.448;2023-04-20T04:24:26;100554.84;;;12.23;100.00
8575;BME280;4325;42.520;27.448;2023-04-20T04:26:52;100556.38;;;12.34;100.00
8575;BME280;4325;42.520;27.448;2023-04-20T04:29:22;100549.72;;;12.45;100.00
8575;BME280;4325;42.520;27.448;2023-04-20T04:31:51;100562.53;;;12.54;100.00
8575;BME280;4325;42.520;27.448;2023-04-20T04:34:18;100554.47;;;12.63;100.00
8575;BME280;4325;42.520;27.448;2023-04-20T04:36:45;100563.75;;;12.72;100.00
8575;BME280;4325;42.520;27.448;2023-04-20T04:39:12;100569.13;;;12.82;100.00
8575;BME280;4325;42.520;27.448;2023-04-20T04:41:39;100560.53;;;12.89;100.00
8575;BME280;4325;42.520;27.448;2023-04-20T04:44:06;100569.78;;;12.98;100.00
8575;BME280;4325;42.520;27.448;2023-04-20T04:46:33;100561.78;;;13.01;100.00
8575;BME280;4325;42.520;27.448;2023-04-20T04:49:02;100576.44;;;13.20;100.00
8575;BME280;4325;42.520;27.448;2023-04-20T04:51:30;100575.66;;;13.39;100.00
8575;BME280;4325;42.520;27.448;2023-04-20T04:53:57;100568.34;;;13.53;100.00
8575;BME280;4325;42.520;27.448;2023-04-20T04:56:24;100560.69;;;13.68;100.00
8575;BME280;4325;42.520;27.448;2023-04-20T04:58:51;100573.06;;;13.89;100.00
8575;BME280;4325;42.520;27.448;2023-04-20T05:01:18;100575.50;;;13.91;100.00
8575;BME280;4325;42.520;27.448;2023-04-20T05:03:45;100577.28;;;13.82;100.00
8575;BME280;4325;42.520;27.448;2023-04-20T05:06:13;100563.44;;;13.68;100.00
8575;BME280;4325;42.520;27.448;2023-04-20T05:08:40;100583.84;;;13.86;100.00
8575;BME280;4325;42.520;27.448;2023-04-20T05:11:07;100582.63;;;13.92;100.00
8575;BME280;4325;42.520;27.448;2023-04-20T05:13:34;100586.97;;;13.98;100.00
8575;BME280;4325;42.520;27.448;2023-04-20T05:16:00;100585.22;;;14.02;100.00
8575;BME280;4325;42.520;27.448;2023-04-20T05:18:27;100587.97;;;14.02;100.00
8575;BME280;4325;42.520;27.448;2023-04-20T05:20:54;100579.72;;;14.02;100.00
8575;BME280;4325;42.520;27.448;2023-04-20T05:23:22;100587.63;;;14.09;100.00
8575;BME280;4325;42.520;27.448;2023-04-20T05:25:49;100586.50;;;14.28;100.00
8575;BME280;4325;42.520;27.448;2023-04-20T05:28:16;100587.41;;;14.42;100.00
8575;BME280;4325;42.520;27.448;2023-04-20T05:30:43;100581.28;;;14.45;100.00
8575;BME280;4325;42.520;27.448;2023-04-20T05:33:10;100588.25;;;14.57;100.00
8575;BME280;4325;42.520;27.448;2023-04-20T05:35:37;100585.00;;;14.54;100.00
8575;BME280;4325;42.520;27.448;2023-04-20T05:38:05;100586.41;;;14.52;100.00
8575;BME280;4325;42.520;27.448;2023-04-20T05:40:34;100576.63;;;14.60;100.00
8575;BME280;4325;42.520;27.448;2023-04-20T05:43:01;100581.97;;;14.70;100.00
8575;BME280;4325;42.520;27.448;2023-04-20T05:45:27;100579.97;;;14.89;100.00
8575;BME280;4325;42.520;27.448;2023-04-20T05:47:55;100585.28;;;14.99;100.00
8575;BME280;4325;42.520;27.448;2023-04-20T05:50:22;100576.91;;;14.90;100.00
8575;BME280;4325;42.520;27.448;2023-04-20T05:52:49;100580.47;;;14.45;100.00
8575;BME280;4325;42.520;27.448;2023-04-20T05:55:16;100588.59;;;14.36;100.00
8575;BME280;4325;42.520;27.448;2023-04-20T05:57:45;100589.06;;;14.57;100.00
8575;BME280;4325;42.520;27.448;2023-04-20T06:00:13;100589.94;;;14.71;100.00
8575;BME280;4325;42.520;27.448;2023-04-20T06:02:41;100579.16;;;15.02;100.00
8575;BME280;4325;42.520;27.448;2023-04-20T06:05:08;100577.22;;;15.02;100.00
8575;BME280;4325;42.520;27.448;2023-04-20T06:07:35;100578.22;;;14.93;100.00
8575;BME280;4325;42.520;27.448;2023-04-20T06:10:03;100580.56;;;14.86;100.00
8575;BME280;4325;42.520;27.448;2023-04-20T06:12:30;100579.13;;;14.75;100.00
8575;BME280;4325;42.520;27.448;2023-04-20T06:14:58;100583.56;;;14.57;100.00
8575;BME280;4325;42.520;27.448;2023-04-20T06:17:25;100584.28;;;14.63;100.00
8575;BME280;4325;42.520;27.448;2023-04-20T06:19:52;100585.34;;;14.80;100.00
8575;BME280;4325;42.520;27.448;2023-04-20T06:22:19;100596.00;;;14.87;100.00
8575;BME280;4325;42.520;27.448;2023-04-20T06:24:46;100587.66;;;15.05;100.00
8575;BME280;4325;42.520;27.448;2023-04-20T06:27:13;100589.16;;;14.84;100.00
8575;BME280;4325;42.520;27.448;2023-04-20T06:29:40;100591.81;;;14.89;100.00
8575;BME280;4325;42.520;27.448;2023-04-20T06:32:08;100597.25;;;15.08;100.00
8575;BME280;4325;42.520;27.448;2023-04-20T06:34:35;100604.09;;;15.24;100.00
8575;BME280;4325;42.520;27.448;2023-04-20T06:37:04;100600.44;;;15.42;100.00
8575;BME280;4325;42.520;27.448;2023-04-20T06:39:31;100602.38;;;15.55;100.00
8575;BME280;4325;42.520;27.448;2023-04-20T06:41:59;100596.56;;;15.57;100.00
8575;BME280;4325;42.520;27.448;2023-04-20T06:44:27;100599.63;;;15.69;100.00
8575;BME280;4325;42.520;27.448;2023-04-20T06:46:53;100607.16;;;15.91;100.00
8575;BME280;4325;42.520;27.448;2023-04-20T06:49:22;100599.97;;;16.03;100.00
8575;BME280;4325;42.520;27.448;2023-04-20T06:51:48;100602.63;;;16.08;100.00
8575;BME280;4325;42.520;27.448;2023-04-20T06:54:15;100599.41;;;16.15;100.00
8575;BME280;4325;42.520;27.448;2023-04-20T06:56:42;100603.16;;;16.19;100.00
8575;BME280;4325;42.520;27.448;2023-04-20T06:59:09;100602.41;;;16.05;100.00
8575;BME280;4325;42.520;27.448;2023-04-20T07:01:36;100613.16;;;15.93;100.00
8575;BME280;4325;42.520;27.448;2023-04-20T07:04:02;100613.00;;;16.11;100.00
8575;BME280;4325;42.520;27.448;2023-04-20T07:06:31;100607.63;;;16.28;100.00
8575;BME280;4325;42.520;27.448;2023-04-20T07:08:57;100602.50;;;16.35;100.00
8575;BME280;4325;42.520;27.448;2023-04-20T07:11:24;100601.22;;;16.55;100.00
8575;BME280;4325;42.520;27.448;2023-04-20T07:13:51;100605.59;;;16.78;100.00
8575;BME280;4325;42.520;27.448;2023-04-20T07:16:18;100608.16;;;16.97;100.00
8575;BME280;4325;42.520;27.448;2023-04-20T07:18:44;100604.22;;;17.29;100.00
8575;BME280;4325;42.520;27.448;2023-04-20T07:21:11;100615.78;;;17.22;100.00
8575;BME280;4325;42.520;27.448;2023-04-20T07:23:40;100609.81;;;17.76;100.00
8575;BME280;4325;42.520;27.448;2023-04-20T07:26:08;100616.00;;;17.43;97.42
8575;BME280;4325;42.520;27.448;2023-04-20T07:28:35;100613.75;;;17.45;98.54
8575;BME280;4325;42.520;27.448;2023-04-20T07:31:02;100616.31;;;17.80;94.23
8575;BME280;4325;42.520;27.448;2023-04-20T07:33:28;100619.81;;;18.03;92.22
8575;BME280;4325;42.520;27.448;2023-04-20T07:35:56;100631.22;;;18.27;89.30
8575;BME280;4325;42.520;27.448;2023-04-20T07:38:23;100622.06;;;18.18;90.34
8575;BME280;4325;42.520;27.448;2023-04-20T07:40:51;100626.03;;;18.52;88.55
8575;BME280;4325;42.520;27.448;2023-04-20T07:43:18;100632.69;;;18.85;85.89
8575;BME280;4325;42.520;27.448;2023-04-20T07:45:45;100629.41;;;19.46;82.76
8575;BME280;4325;42.520;27.448;2023-04-20T07:48:12;100623.06;;;20.25;76.27
8575;BME280;4325;42.520;27.448;2023-04-20T07:50:39;100619.88;;;20.88;73.34
8575;BME280;4325;42.520;27.448;2023-04-20T07:53:06;100618.97;;;20.96;67.63
8575;BME280;4325;42.520;27.448;2023-04-20T07:55:33;100614.91;;;21.39;63.32
8575;BME280;4325;42.520;27.448;2023-04-20T07:58:01;100619.78;;;21.66;62.18
8575;BME280;4325;42.520;27.448;2023-04-20T08:00:28;100609.00;;;21.40;63.00
8575;BME280;4325;42.520;27.448;2023-04-20T08:02:55;100610.97;;;22.00;58.07
8575;BME280;4325;42.520;27.448;2023-04-20T08:05:22;100613.97;;;22.19;55.31
8575;BME280;4325;42.520;27.448;2023-04-20T08:07:49;100619.69;;;21.99;53.12
8575;BME280;4325;42.520;27.448;2023-04-20T08:10:16;100607.03;;;21.89;52.52
8575;BME280;4325;42.520;27.448;2023-04-20T08:12:43;100610.72;;;21.69;51.56
8575;BME280;4325;42.520;27.448;2023-04-20T08:15:12;100610.84;;;21.36;52.53
8575;BME280;4325;42.520;27.448;2023-04-20T08:17:39;100607.13;;;21.32;53.51
8575;BME280;4325;42.520;27.448;2023-04-20T08:20:08;100612.44;;;21.25;54.13
8575;BME280;4325;42.520;27.448;2023-04-20T08:22:37;100621.59;;;21.14;53.04
8575;BME280;4325;42.520;27.448;2023-04-20T08:25:04;100611.41;;;21.66;52.60
8575;BME280;4325;42.520;27.448;2023-04-20T08:27:31;100617.41;;;22.96;47.96
8575;BME280;4325;42.520;27.448;2023-04-20T08:29:58;100610.75;;;26.00;41.30
8575;BME280;4325;42.520;27.448;2023-04-20T08:32:26;100605.38;;;27.10;36.53
8575;BME280;4325;42.520;27.448;2023-04-20T08:34:54;100604.94;;;27.45;35.71
8575;BME280;4325;42.520;27.448;2023-04-20T08:37:20;100601.75;;;28.76;33.18
8575;BME280;4325;42.520;27.448;2023-04-20T08:39:47;100612.22;;;26.46;35.26
8575;BME280;4325;42.520;27.448;2023-04-20T08:42:14;100604.13;;;24.56;40.09
8575;BME280;4325;42.520;27.448;2023-04-20T08:44:41;100609.72;;;23.52;43.96
8575;BME280;4325;42.520;27.448;2023-04-20T08:47:08;100604.38;;;23.31;45.56
8575;BME280;4325;42.520;27.448;2023-04-20T08:49:38;100606.41;;;23.97;45.85
8575;BME280;4325;42.520;27.448;2023-04-20T08:52:05;100615.75;;;23.54;46.76
8575;BME280;4325;42.520;27.448;2023-04-20T08:54:35;100615.53;;;22.72;47.97
8575;BME280;4325;42.520;27.448;2023-04-20T08:57:03;100620.72;;;22.06;49.51
8575;BME280;4325;42.520;27.448;2023-04-20T08:59:30;100613.66;;;21.36;51.23
8575;BME280;4325;42.520;27.448;2023-04-20T09:02:07;100615.03;;;20.85;53.21
8575;BME280;4325;42.520;27.448;2023-04-20T09:04:34;100611.69;;;20.71;54.74
8575;BME280;4325;42.520;27.448;2023-04-20T09:07:03;100613.44;;;20.64;54.79
8575;BME280;4325;42.520;27.448;2023-04-20T09:09:30;100610.47;;;20.48;58.53
8575;BME280;4325;42.520;27.448;2023-04-20T09:12:00;100613.44;;;20.43;60.73
8575;BME280;4325;42.520;27.448;2023-04-20T09:14:28;100607.88;;;20.64;62.57
8575;BME280;4325;42.520;27.448;2023-04-20T09:16:56;100607.56;;;20.77;62.50
8575;BME280;4325;42.520;27.448;2023-04-20T09:19:27;100609.69;;;20.92;60.06
8575;BME280;4325;42.520;27.448;2023-04-20T09:21:56;100613.19;;;21.01;59.22
8575;BME280;4325;42.520;27.448;2023-04-20T09:24:31;100616.06;;;21.38;57.47
8575;BME280;4325;42.520;27.448;2023-04-20T09:26:58;100610.88;;;21.73;53.59
8575;BME280;4325;42.520;27.448;2023-04-20T09:29:25;100613.28;;;22.10;52.43
8575;BME280;4325;42.520;27.448;2023-04-20T09:31:52;100612.06;;;22.35;51.01
8575;BME280;4325;42.520;27.448;2023-04-20T09:34:20;100618.03;;;22.50;49.93
8575;BME280;4325;42.520;27.448;2023-04-20T09:36:48;100608.72;;;22.58;48.31
8575;BME280;4325;42.520;27.448;2023-04-20T09:39:16;100614.44;;;22.49;48.16
8575;BME280;4325;42.520;27.448;2023-04-20T09:41:45;100601.38;;;22.25;47.88
8575;BME280;4325;42.520;27.448;2023-04-20T09:44:14;100607.81;;;22.14;49.18
8575;BME280;4325;42.520;27.448;2023-04-20T09:46:41;100601.91;;;22.03;49.33
8575;BME280;4325;42.520;27.448;2023-04-20T09:49:10;100596.69;;;22.02;49.97
8575;BME280;4325;42.520;27.448;2023-04-20T09:51:38;100595.97;;;21.81;48.36
8575;BME280;4325;42.520;27.448;2023-04-20T09:54:10;100583.81;;;21.73;49.41
8575;BME280;4325;42.520;27.448;2023-04-20T09:56:37;100598.44;;;21.94;49.19
8575;BME280;4325;42.520;27.448;2023-04-20T09:59:06;100603.69;;;22.35;48.94
8575;BME280;4325;42.520;27.448;2023-04-20T10:01:34;100598.38;;;22.58;47.79
8575;BME280;4325;42.520;27.448;2023-04-20T10:04:05;100595.03;;;22.53;47.68
8575;BME280;4325;42.520;27.448;2023-04-20T10:06:34;100592.66;;;22.27;48.62
8575;BME280;4325;42.520;27.448;2023-04-20T10:09:04;100592.34;;;22.16;50.10
8575;BME280;4325;42.520;27.448;2023-04-20T10:11:32;100588.09;;;22.34;50.04
8575;BME280;4325;42.520;27.448;2023-04-20T10:14:01;100593.81;;;22.66;48.87
8575;BME280;4325;42.520;27.448;2023-04-20T10:16:40;100586.88;;;23.03;46.81
8575;BME280;4325;42.520;27.448;2023-04-20T10:19:07;100590.03;;;23.17;47.06
8575;BME280;4325;42.520;27.448;2023-04-20T10:21:44;100587.31;;;23.05;46.18
8575;BME280;4325;42.520;27.448;2023-04-20T10:24:11;100589.09;;;22.97;46.07
8575;BME280;4325;42.520;27.448;2023-04-20T10:26:41;100586.34;;;23.13;45.38
8575;BME280;4325;42.520;27.448;2023-04-20T10:29:09;100581.28;;;23.34;44.62
8575;BME280;4325;42.520;27.448;2023-04-20T10:31:37;100596.13;;;23.50;45.19
8575;BME280;4325;42.520;27.448;2023-04-20T10:34:07;100578.81;;;23.60;44.18
8575;BME280;4325;42.520;27.448;2023-04-20T10:36:35;100581.22;;;23.62;44.04
8575;BME280;4325;42.520;27.448;2023-04-20T10:39:13;100583.09;;;23.74;43.89
8575;BME280;4325;42.520;27.448;2023-04-20T10:41:54;100577.09;;;23.91;43.84
8575;BME280;4325;42.520;27.448;2023-04-20T10:44:23;100577.09;;;24.25;43.50
8575;BME280;4325;42.520;27.448;2023-04-20T10:46:50;100584.91;;;24.36;42.00
8575;BME280;4325;42.520;27.448;2023-04-20T10:49:18;100578.50;;;24.16;42.45
8575;BME280;4325;42.520;27.448;2023-04-20T10:51:46;100588.38;;;23.94;42.06
8575;BME280;4325;42.520;27.448;2023-04-20T10:54:14;100596.91;;;23.67;42.27
8575;BME280;4325;42.520;27.448;2023-04-20T10:56:43;100596.63;;;23.72;42.47
8575;BME280;4325;42.520;27.448;2023-04-20T10:59:11;100597.38;;;24.38;41.15
8575;BME280;4325;42.520;27.448;2023-04-20T11:01:39;100589.34;;;26.14;38.90
8575;BME280;4325;42.520;27.448;2023-04-20T11:04:06;100592.44;;;28.65;34.87
8575;BME280;4325;42.520;27.448;2023-04-20T11:06:35;100600.63;;;31.12;29.93
8575;BME280;4325;42.520;27.448;2023-04-20T11:09:07;100590.13;;;33.33;27.65
8575;BME280;4325;42.520;27.448;2023-04-20T11:11:42;100594.84;;;34.13;25.66
8575;BME280;4325;42.520;27.448;2023-04-20T11:14:10;100591.53;;;33.21;26.50
8575;BME280;4325;42.520;27.448;2023-04-20T11:16:38;100591.06;;;31.51;28.08
8575;BME280;4325;42.520;27.448;2023-04-20T11:19:05;100598.63;;;30.08;29.60
8575;BME280;4325;42.520;27.448;2023-04-20T11:21:39;100585.75;;;29.33;31.25
8575;BME280;4325;42.520;27.448;2023-04-20T11:24:16;100584.88;;;28.98;31.52
8575;BME280;4325;42.520;27.448;2023-04-20T11:26:44;100575.75;;;28.25;32.40
8575;BME280;4325;42.520;27.448;2023-04-20T11:29:25;100586.28;;;27.33;33.68
8575;BME280;4325;42.520;27.448;2023-04-20T11:31:52;100582.69;;;26.89;33.86
8575;BME280;4325;42.520;27.448;2023-04-20T11:34:20;100574.31;;;26.30;35.15
8575;BME280;4325;42.520;27.448;2023-04-20T11:36:49;100575.84;;;25.97;36.70
8575;BME280;4325;42.520;27.448;2023-04-20T11:39:22;100580.75;;;25.78;37.21
8575;BME280;4325;42.520;27.448;2023-04-20T11:41:49;100581.88;;;25.47;38.03
8575;BME280;4325;42.520;27.448;2023-04-20T11:44:16;100586.91;;;25.15;38.53
8575;BME280;4325;42.520;27.448;2023-04-20T11:46:45;100579.25;;;24.89;38.99
8575;BME280;4325;42.520;27.448;2023-04-20T11:49:13;100571.78;;;24.78;39.95
8575;BME280;4325;42.520;27.448;2023-04-20T11:51:41;100574.94;;;24.76;40.07
8575;BME280;4325;42.520;27.448;2023-04-20T11:54:09;100565.75;;;24.57;40.59
8575;BME280;4325;42.520;27.448;2023-04-20T11:56:37;100570.69;;;24.25;40.71
8575;BME280;4325;42.520;27.448;2023-04-20T11:59:04;100566.06;;;23.98;41.06
8575;BME280;4325;42.520;27.448;2023-04-20T12:01:30;100568.72;;;23.91;40.84
8575;BME280;4325;42.520;27.448;2023-04-20T12:03:58;100567.75;;;24.02;41.07
8575;BME280;4325;42.520;27.448;2023-04-20T12:06:26;100560.09;;;24.15;40.37
8575;BME280;4325;42.520;27.448;2023-04-20T12:08:53;100555.69;;;24.14;40.24
8575;BME280;4325;42.520;27.448;2023-04-20T12:11:22;100548.16;;;24.18;40.11
8575;BME280;4325;42.520;27.448;2023-04-20T12:13:49;100551.41;;;24.39;40.50
8575;BME280;4325;42.520;27.448;2023-04-20T12:16:17;100551.50;;;24.65;39.78
8575;BME280;4325;42.520;27.448;2023-04-20T12:18:44;100550.84;;;24.72;39.49
8575;BME280;4325;42.520;27.448;2023-04-20T12:21:11;100549.28;;;24.93;39.20
8575;BME280;4325;42.520;27.448;2023-04-20T12:23:38;100549.72;;;24.96;38.04
8575;BME280;4325;42.520;27.448;2023-04-20T12:26:05;100552.34;;;25.08;38.42
8575;BME280;4325;42.520;27.448;2023-04-20T12:28:47;100553.06;;;25.05;37.47
8575;BME280;4325;42.520;27.448;2023-04-20T12:31:14;100549.22;;;24.71;37.76
8575;BME280;4325;42.520;27.448;2023-04-20T12:33:41;100550.22;;;24.40;38.78
8575;BME280;4325;42.520;27.448;2023-04-20T12:36:08;100549.13;;;23.91;39.24
8575;BME280;4325;42.520;27.448;2023-04-20T12:38:35;100550.13;;;23.32;40.13
8575;BME280;4325;42.520;27.448;2023-04-20T12:41:02;100545.44;;;23.21;40.51
8575;BME280;4325;42.520;27.448;2023-04-20T12:43:29;100546.53;;;23.47;40.47
8575;BME280;4325;42.520;27.448;2023-04-20T12:45:58;100533.47;;;24.05;39.80
8575;BME280;4325;42.520;27.448;2023-04-20T12:48:24;100540.81;;;24.48;38.98
8575;BME280;4325;42.520;27.448;2023-04-20T12:50:51;100533.97;;;24.68;39.20
8575;BME280;4325;42.520;27.448;2023-04-20T12:53:18;100537.41;;;24.77;38.30
8575;BME280;4325;42.520;27.448;2023-04-20T12:55:45;100535.38;;;24.78;37.66
8575;BME280;4325;42.520;27.448;2023-04-20T12:58:12;100527.81;;;24.78;37.18